createdAt,value
2017-08-08T00:00:46.290Z,25.88
2017-08-08T00:01:55.213Z,25.95
2017-08-08T00:03:04.117Z,25.87
2017-08-08T00:04:13.019Z,25.88
2017-08-08T00:05:21.945Z,25.9
2017-08-08T00:06:30.851Z,25.87
2017-08-08T00:07:39.775Z,25.88
2017-08-08T00:08:49.006Z,25.85
2017-08-08T00:09:57.920Z,25.88
2017-08-08T00:11:06.833Z,25.87
2017-08-08T00:12:15.736Z,25.85
2017-08-08T00:13:24.639Z,25.84
2017-08-08T00:14:33.548Z,25.84
2017-08-08T00:15:42.444Z,25.88
2017-08-08T00:16:51.352Z,25.85
2017-08-08T00:18:00.250Z,25.88
2017-08-08T00:19:09.156Z,25.84
2017-08-08T00:20:18.058Z,25.76
2017-08-08T00:21:26.963Z,25.83
2017-08-08T00:22:35.867Z,25.84
2017-08-08T00:23:44.779Z,25.84
2017-08-08T00:24:53.680Z,25.9
2017-08-08T00:26:02.583Z,25.84
2017-08-08T00:27:11.482Z,25.8
2017-08-08T00:28:20.707Z,25.8
2017-08-08T00:29:29.939Z,25.78
2017-08-08T00:30:38.844Z,25.76
2017-08-08T00:31:47.746Z,25.73
2017-08-08T00:32:56.641Z,25.72
2017-08-08T00:34:05.890Z,25.79
2017-08-08T00:35:14.788Z,25.73
2017-08-08T00:36:23.695Z,25.78
2017-08-08T00:37:32.604Z,25.72
2017-08-08T00:38:41.514Z,25.72
2017-08-08T00:39:50.418Z,25.72
2017-08-08T00:40:59.326Z,25.76
2017-08-08T00:42:08.224Z,25.72
2017-08-08T00:43:17.130Z,25.76
2017-08-08T00:44:26.036Z,25.61
2017-08-08T00:45:34.938Z,25.73
2017-08-08T00:46:43.846Z,25.72
2017-08-08T00:47:52.758Z,25.68
2017-08-08T00:49:01.668Z,25.73
2017-08-08T00:50:10.576Z,25.68
2017-08-08T00:51:19.477Z,25.57
2017-08-08T00:52:28.386Z,25.65
2017-08-08T00:53:37.285Z,25.69
2017-08-08T00:54:46.187Z,25.58
2017-08-08T00:55:55.103Z,25.65
2017-08-08T00:57:04.328Z,25.6
2017-08-08T00:58:13.209Z,25.66
2017-08-08T00:59:22.066Z,25.68
2017-08-08T01:00:30.919Z,25.69
2017-08-08T01:01:39.770Z,25.63
2017-08-08T01:02:48.622Z,25.7
2017-08-08T01:03:57.477Z,25.66
2017-08-08T01:05:06.338Z,25.65
2017-08-08T01:06:15.204Z,25.66
2017-08-08T01:07:24.059Z,25.63
2017-08-08T01:08:32.910Z,25.58
2017-08-08T01:09:41.771Z,25.58
2017-08-08T01:10:50.622Z,25.63
2017-08-08T01:11:59.485Z,25.58
2017-08-08T01:13:08.341Z,25.66
2017-08-08T01:14:17.200Z,25.69
2017-08-08T01:15:26.053Z,25.73
2017-08-08T01:16:34.903Z,25.6
2017-08-08T01:17:43.755Z,25.61
2017-08-08T01:18:52.610Z,25.6
2017-08-08T01:20:01.458Z,25.6
2017-08-08T01:21:10.313Z,25.58
2017-08-08T01:22:19.161Z,25.54
2017-08-08T01:23:28.019Z,25.58
2017-08-08T01:24:36.873Z,25.6
2017-08-08T01:25:45.730Z,25.57
2017-08-08T01:26:54.918Z,25.58
2017-08-08T01:28:04.087Z,25.51
2017-08-08T01:29:12.939Z,25.51
2017-08-08T01:30:21.786Z,25.5
2017-08-08T01:31:30.646Z,25.57
2017-08-08T01:32:39.505Z,25.54
2017-08-08T01:33:48.365Z,25.47
2017-08-08T01:34:57.222Z,25.54
2017-08-08T01:36:06.390Z,25.55
2017-08-08T01:37:15.244Z,25.4
2017-08-08T01:38:24.112Z,25.51
2017-08-08T01:39:32.979Z,25.48
2017-08-08T01:40:41.831Z,25.57
2017-08-08T01:41:50.686Z,25.46
2017-08-08T01:42:59.537Z,25.42
2017-08-08T01:44:08.409Z,25.42
2017-08-08T01:45:17.262Z,25.38
2017-08-08T01:46:26.116Z,25.48
2017-08-08T01:47:34.973Z,25.38
2017-08-08T01:48:43.825Z,25.47
2017-08-08T01:49:52.671Z,25.42
2017-08-08T01:51:01.521Z,25.36
2017-08-08T01:52:10.369Z,25.43
2017-08-08T01:53:19.549Z,25.42
2017-08-08T01:54:28.719Z,25.42
2017-08-08T01:55:37.575Z,25.38
2017-08-08T01:56:46.428Z,25.35
2017-08-08T01:57:55.272Z,25.46
2017-08-08T01:59:04.127Z,25.46
2017-08-08T02:00:12.988Z,25.39
2017-08-08T02:01:21.833Z,25.42
2017-08-08T02:02:30.685Z,25.43
2017-08-08T02:03:39.861Z,25.38
2017-08-08T02:04:48.708Z,25.4
2017-08-08T02:05:57.883Z,25.43
2017-08-08T02:07:06.738Z,25.32
2017-08-08T02:08:15.584Z,25.32
2017-08-08T02:09:24.440Z,25.38
2017-08-08T02:10:33.288Z,25.39
2017-08-08T02:11:42.133Z,25.39
2017-08-08T02:12:50.986Z,25.33
2017-08-08T02:13:59.841Z,25.2
2017-08-08T02:15:08.687Z,25.36
2017-08-08T02:16:17.549Z,25.36
2017-08-08T02:17:26.402Z,25.31
2017-08-08T02:18:35.248Z,25.38
2017-08-08T02:19:44.423Z,25.38
2017-08-08T02:20:53.279Z,25.29
2017-08-08T02:22:02.133Z,25.39
2017-08-08T02:23:10.986Z,25.32
2017-08-08T02:24:19.839Z,25.33
2017-08-08T02:25:28.693Z,25.32
2017-08-08T02:26:37.565Z,25.39
2017-08-08T02:27:46.420Z,25.26
2017-08-08T02:28:55.267Z,25.23
2017-08-08T02:30:04.135Z,25.23
2017-08-08T02:31:12.984Z,25.23
2017-08-08T02:32:21.834Z,25.28
2017-08-08T02:33:30.693Z,25.24
2017-08-08T02:34:39.545Z,25.26
2017-08-08T02:35:48.387Z,25.21
2017-08-08T02:36:57.244Z,25.21
2017-08-08T02:38:06.738Z,25.2
2017-08-08T02:39:15.591Z,25.28
2017-08-08T02:40:24.447Z,25.23
2017-08-08T02:41:33.316Z,25.26
2017-08-08T02:42:42.173Z,25.24
2017-08-08T02:43:51.033Z,25.29
2017-08-08T02:44:59.889Z,25.24
2017-08-08T02:46:08.747Z,25.18
2017-08-08T02:47:17.594Z,25.28
2017-08-08T02:48:26.451Z,25.21
2017-08-08T02:49:35.305Z,25.32
2017-08-08T02:50:44.162Z,25.29
2017-08-08T02:51:53.335Z,25.29
2017-08-08T02:53:02.200Z,25.28
2017-08-08T02:54:11.065Z,25.21
2017-08-08T02:55:19.913Z,25.16
2017-08-08T02:56:28.769Z,25.17
2017-08-08T02:57:37.624Z,25.2
2017-08-08T02:58:47.133Z,25.13
2017-08-08T02:59:56.637Z,25.16
2017-08-08T03:01:05.493Z,25.16
2017-08-08T03:02:14.354Z,25.11
2017-08-08T03:03:23.214Z,25.1
2017-08-08T03:04:32.075Z,25.14
2017-08-08T03:05:40.929Z,25.13
2017-08-08T03:06:49.786Z,25.2
2017-08-08T03:07:58.632Z,25.05
2017-08-08T03:09:07.483Z,25.11
2017-08-08T03:10:16.338Z,25.09
2017-08-08T03:11:25.192Z,25.1
2017-08-08T03:12:34.045Z,25.09
2017-08-08T03:13:42.897Z,25.14
2017-08-08T03:14:51.749Z,25.1
2017-08-08T03:16:00.598Z,25.09
2017-08-08T03:17:09.454Z,25.1
2017-08-08T03:18:18.311Z,25.06
2017-08-08T03:19:27.160Z,25.1
2017-08-08T03:20:36.009Z,25.1
2017-08-08T03:21:44.862Z,25.06
2017-08-08T03:22:53.713Z,25.16
2017-08-08T03:24:02.566Z,25.1
2017-08-08T03:25:11.419Z,24.99
2017-08-08T03:26:20.290Z,25.05
2017-08-08T03:27:29.140Z,25.05
2017-08-08T03:28:37.991Z,25.13
2017-08-08T03:29:46.847Z,24.99
2017-08-08T03:30:55.693Z,25.05
2017-08-08T03:32:04.560Z,25.1
2017-08-08T03:33:13.425Z,25.05
2017-08-08T03:34:22.275Z,25.09
2017-08-08T03:35:31.126Z,25.09
2017-08-08T03:36:39.978Z,25.06
2017-08-08T03:37:48.827Z,25.02
2017-08-08T03:38:58.003Z,25.05
2017-08-08T03:40:06.858Z,25.05
2017-08-08T03:41:15.706Z,24.94
2017-08-08T03:42:24.873Z,25.05
2017-08-08T03:43:34.025Z,25.03
2017-08-08T03:44:42.885Z,25.1
2017-08-08T03:45:51.737Z,25.06
2017-08-08T03:47:00.592Z,25.06
2017-08-08T03:48:09.445Z,25.06
2017-08-08T03:49:18.301Z,25.02
2017-08-08T03:50:27.149Z,25.11
2017-08-08T03:51:36.005Z,24.95
2017-08-08T03:52:44.867Z,24.98
2017-08-08T03:53:54.034Z,25.09
2017-08-08T03:55:02.883Z,24.98
2017-08-08T03:56:11.739Z,25.01
2017-08-08T03:57:20.614Z,24.91
2017-08-08T03:58:29.463Z,24.89
2017-08-08T03:59:38.314Z,24.92
2017-08-08T04:00:47.162Z,24.91
2017-08-08T04:01:56.012Z,24.94
2017-08-08T04:03:04.875Z,25.01
2017-08-08T04:04:13.735Z,25.03
2017-08-08T04:05:22.592Z,25.02
2017-08-08T04:06:31.463Z,24.96
2017-08-08T04:07:40.311Z,24.91
2017-08-08T04:08:49.177Z,24.98
2017-08-08T04:09:58.348Z,25.01
2017-08-08T04:11:07.208Z,24.98
2017-08-08T04:12:16.054Z,24.96
2017-08-08T04:13:25.222Z,24.96
2017-08-08T04:14:34.081Z,24.95
2017-08-08T04:15:42.930Z,24.96
2017-08-08T04:16:51.782Z,24.92
2017-08-08T04:18:00.632Z,24.92
2017-08-08T04:19:09.805Z,24.94
2017-08-08T04:20:18.660Z,24.99
2017-08-08T04:21:27.515Z,24.96
2017-08-08T04:22:36.364Z,24.96
2017-08-08T04:23:45.216Z,24.96
2017-08-08T04:24:54.069Z,24.89
2017-08-08T04:26:02.914Z,24.99
2017-08-08T04:27:11.765Z,24.89
2017-08-08T04:28:20.621Z,24.98
2017-08-08T04:29:29.480Z,24.96
2017-08-08T04:30:38.337Z,24.89
2017-08-08T04:31:47.184Z,24.92
2017-08-08T04:32:56.035Z,24.95
2017-08-08T04:34:04.887Z,24.89
2017-08-08T04:35:13.738Z,24.92
2017-08-08T04:36:22.582Z,24.87
2017-08-08T04:37:31.436Z,24.83
2017-08-08T04:38:40.295Z,24.86
2017-08-08T04:39:49.468Z,24.89
2017-08-08T04:40:58.313Z,24.86
2017-08-08T04:42:07.183Z,24.95
2017-08-08T04:43:16.029Z,24.94
2017-08-08T04:44:24.880Z,24.87
2017-08-08T04:45:33.733Z,24.94
2017-08-08T04:46:42.593Z,24.83
2017-08-08T04:47:51.445Z,24.96
2017-08-08T04:49:00.300Z,24.92
2017-08-08T04:50:09.161Z,24.89
2017-08-08T04:51:18.013Z,24.81
2017-08-08T04:52:27.183Z,24.89
2017-08-08T04:53:36.035Z,24.87
2017-08-08T04:54:44.882Z,24.86
2017-08-08T04:55:54.046Z,24.87
2017-08-08T04:57:02.897Z,24.87
2017-08-08T04:58:11.751Z,24.89
2017-08-08T04:59:20.600Z,24.89
2017-08-08T05:00:29.449Z,24.83
2017-08-08T05:01:38.304Z,24.94
2017-08-08T05:02:47.153Z,24.91
2017-08-08T05:03:56.000Z,24.91
2017-08-08T05:05:04.856Z,24.87
2017-08-08T05:06:13.702Z,24.95
2017-08-08T05:07:22.556Z,24.87
2017-08-08T05:08:31.402Z,24.87
2017-08-08T05:09:40.272Z,24.92
2017-08-08T05:10:49.136Z,24.91
2017-08-08T05:11:57.987Z,24.95
2017-08-08T05:13:07.160Z,24.91
2017-08-08T05:14:16.014Z,24.86
2017-08-08T05:15:24.870Z,24.92
2017-08-08T05:16:33.725Z,24.83
2017-08-08T05:17:42.576Z,24.81
2017-08-08T05:18:51.436Z,24.84
2017-08-08T05:20:00.295Z,24.86
2017-08-08T05:21:09.463Z,24.92
2017-08-08T05:22:18.351Z,24.84
2017-08-08T05:23:27.200Z,24.87
2017-08-08T05:24:36.051Z,24.89
2017-08-08T05:25:44.908Z,24.83
2017-08-08T05:26:53.755Z,24.87
2017-08-08T05:28:02.608Z,24.83
2017-08-08T05:29:11.459Z,24.81
2017-08-08T05:30:20.316Z,24.89
2017-08-08T05:31:29.175Z,24.87
2017-08-08T05:32:38.021Z,24.92
2017-08-08T05:33:47.191Z,24.86
2017-08-08T05:34:56.045Z,24.87
2017-08-08T05:36:04.890Z,24.86
2017-08-08T05:37:13.748Z,24.96
2017-08-08T05:38:22.603Z,24.96
2017-08-08T05:39:31.445Z,24.96
2017-08-08T05:40:40.324Z,24.86
2017-08-08T05:41:49.176Z,24.86
2017-08-08T05:42:58.024Z,24.94
2017-08-08T05:44:06.877Z,24.99
2017-08-08T05:45:15.738Z,25.01
2017-08-08T05:46:24.591Z,24.95
2017-08-08T05:47:33.435Z,24.98
2017-08-08T05:48:42.288Z,24.91
2017-08-08T05:49:51.134Z,24.91
2017-08-08T05:50:59.986Z,25.01
2017-08-08T05:52:08.850Z,25.01
2017-08-08T05:53:17.701Z,25.11
2017-08-08T05:54:26.552Z,25.02
2017-08-08T05:55:35.411Z,25.05
2017-08-08T05:56:44.256Z,25.11
2017-08-08T05:57:53.113Z,25.03
2017-08-08T05:59:01.972Z,25.1
2017-08-08T06:00:10.825Z,25.09
2017-08-08T06:01:19.673Z,25.13
2017-08-08T06:02:28.547Z,25.03
2017-08-08T06:03:37.398Z,25.11
2017-08-08T06:04:46.253Z,25.03
2017-08-08T06:05:55.422Z,24.91
2017-08-08T06:07:04.276Z,25.05
2017-08-08T06:08:13.129Z,24.98
2017-08-08T06:09:21.980Z,25.09
2017-08-08T06:10:30.825Z,25.09
2017-08-08T06:11:39.679Z,25.13
2017-08-08T06:12:48.533Z,25.11
2017-08-08T06:13:57.383Z,25.1
2017-08-08T06:15:06.234Z,25.09
2017-08-08T06:16:15.092Z,25.09
2017-08-08T06:17:23.938Z,25.11
2017-08-08T06:18:32.785Z,25.09
2017-08-08T06:19:41.635Z,25.11
2017-08-08T06:20:50.489Z,25.11
2017-08-08T06:21:59.348Z,25.11
2017-08-08T06:23:08.195Z,25.1
2017-08-08T06:24:17.052Z,25.09
2017-08-08T06:25:25.913Z,25.05
2017-08-08T06:26:34.766Z,25.1
2017-08-08T06:27:43.617Z,25.05
2017-08-08T06:28:52.466Z,25.05
2017-08-08T06:30:01.321Z,25.09
2017-08-08T06:31:10.175Z,25.01
2017-08-08T06:32:19.027Z,25.11
2017-08-08T06:33:27.879Z,25.1
2017-08-08T06:34:36.731Z,25.1
2017-08-08T06:35:45.576Z,25.06
2017-08-08T06:36:54.432Z,25.1
2017-08-08T06:38:03.284Z,25.06
2017-08-08T06:39:12.151Z,25.11
2017-08-08T06:40:21.002Z,25.02
2017-08-08T06:41:29.901Z,25.06
2017-08-08T06:42:39.067Z,25.11
2017-08-08T06:43:47.920Z,25.05
2017-08-08T06:44:56.774Z,25.1
2017-08-08T06:46:05.622Z,25.09
2017-08-08T06:47:14.482Z,25.03
2017-08-08T06:48:23.347Z,25.05
2017-08-08T06:49:32.203Z,25.1
2017-08-08T06:50:41.052Z,25.09
2017-08-08T06:51:49.907Z,25.1
2017-08-08T06:52:58.768Z,25.11
2017-08-08T06:54:07.931Z,25.09
2017-08-08T06:55:16.792Z,25.1
2017-08-08T06:56:25.650Z,25.13
2017-08-08T06:57:34.502Z,25.1
2017-08-08T06:58:43.352Z,25.06
2017-08-08T06:59:52.209Z,25.05
2017-08-08T07:01:01.064Z,25.06
2017-08-08T07:02:09.910Z,25.09
2017-08-08T07:03:18.758Z,25.16
2017-08-08T07:04:27.611Z,25.16
2017-08-08T07:05:36.462Z,25.17
2017-08-08T07:06:45.317Z,25.18
2017-08-08T07:07:54.479Z,25.16
2017-08-08T07:09:03.332Z,25.26
2017-08-08T07:10:12.483Z,25.17
2017-08-08T07:11:21.338Z,25.17
2017-08-08T07:12:30.189Z,25.17
2017-08-08T07:13:39.040Z,25.24
2017-08-08T07:14:47.894Z,25.18
2017-08-08T07:15:56.765Z,25.17
2017-08-08T07:17:05.611Z,25.16
2017-08-08T07:18:14.472Z,25.28
2017-08-08T07:19:23.316Z,25.17
2017-08-08T07:20:32.173Z,25.21
2017-08-08T07:21:41.032Z,25.23
2017-08-08T07:22:49.878Z,25.24
2017-08-08T07:23:58.727Z,25.16
2017-08-08T07:25:07.581Z,25.18
2017-08-08T07:26:16.431Z,25.23
2017-08-08T07:27:25.284Z,25.18
2017-08-08T07:28:34.135Z,25.26
2017-08-08T07:29:42.987Z,25.26
2017-08-08T07:30:51.843Z,25.28
2017-08-08T07:32:00.712Z,25.29
2017-08-08T07:33:09.565Z,25.28
2017-08-08T07:34:18.418Z,25.26
2017-08-08T07:35:27.277Z,25.31
2017-08-08T07:36:36.123Z,25.16
2017-08-08T07:37:44.978Z,25.17
2017-08-08T07:38:53.832Z,25.31
2017-08-08T07:40:02.679Z,25.26
2017-08-08T07:41:11.531Z,25.29
2017-08-08T07:42:20.717Z,25.28
2017-08-08T07:43:29.566Z,25.24
2017-08-08T07:44:38.414Z,25.23
2017-08-08T07:45:47.268Z,25.28
2017-08-08T07:46:56.111Z,25.31
2017-08-08T07:48:04.972Z,25.31
2017-08-08T07:49:13.835Z,25.23
2017-08-08T07:50:22.684Z,25.26
2017-08-08T07:51:31.528Z,25.24
2017-08-08T07:52:40.412Z,25.28
2017-08-08T07:53:49.264Z,25.23
2017-08-08T07:54:58.442Z,25.23
2017-08-08T07:56:07.601Z,25.31
2017-08-08T07:57:16.456Z,25.28
2017-08-08T07:58:25.305Z,25.29
2017-08-08T07:59:34.161Z,25.23
2017-08-08T08:00:43.020Z,25.26
2017-08-08T08:01:51.890Z,25.21
2017-08-08T08:03:00.750Z,25.26
2017-08-08T08:04:09.600Z,25.31
2017-08-08T08:05:18.450Z,25.32
2017-08-08T08:06:27.305Z,25.35
2017-08-08T08:07:36.163Z,25.33
2017-08-08T08:08:45.053Z,25.39
2017-08-08T08:09:53.906Z,25.28
2017-08-08T08:11:02.757Z,25.36
2017-08-08T08:12:11.609Z,25.35
2017-08-08T08:13:20.471Z,25.33
2017-08-08T08:14:29.326Z,25.36
2017-08-08T08:15:38.169Z,25.33
2017-08-08T08:16:47.023Z,25.35
2017-08-08T08:17:55.891Z,25.36
2017-08-08T08:19:04.741Z,25.36
2017-08-08T08:20:13.597Z,25.43
2017-08-08T08:21:22.452Z,25.39
2017-08-08T08:22:31.307Z,25.4
2017-08-08T08:23:40.161Z,25.43
2017-08-08T08:24:49.010Z,25.46
2017-08-08T08:25:57.870Z,25.46
2017-08-08T08:27:06.721Z,25.46
2017-08-08T08:28:15.574Z,25.38
2017-08-08T08:29:24.432Z,25.47
2017-08-08T08:30:33.286Z,25.4
2017-08-08T08:31:42.139Z,25.47
2017-08-08T08:32:50.992Z,25.36
2017-08-08T08:33:59.849Z,25.53
2017-08-08T08:35:08.709Z,25.46
2017-08-08T08:36:17.553Z,25.51
2017-08-08T08:37:26.399Z,25.55
2017-08-08T08:38:35.249Z,25.43
2017-08-08T08:39:44.096Z,25.53
2017-08-08T08:40:52.943Z,25.61
2017-08-08T08:42:01.793Z,25.58
2017-08-08T08:43:10.649Z,25.63
2017-08-08T08:44:19.828Z,25.61
2017-08-08T08:45:29.003Z,25.57
2017-08-08T08:46:37.856Z,25.6
2017-08-08T08:47:46.714Z,25.65
2017-08-08T08:48:55.560Z,25.55
2017-08-08T08:50:04.413Z,25.63
2017-08-08T08:51:13.265Z,25.75
2017-08-08T08:52:22.138Z,25.65
2017-08-08T08:53:30.990Z,25.65
2017-08-08T08:54:39.842Z,25.63
2017-08-08T08:55:48.691Z,25.69
2017-08-08T08:56:57.537Z,25.61
2017-08-08T08:58:06.395Z,25.7
2017-08-08T08:59:15.250Z,25.7
2017-08-08T09:00:24.418Z,25.66
2017-08-08T09:01:33.266Z,25.7
2017-08-08T09:02:42.111Z,25.68
2017-08-08T09:03:50.966Z,25.66
2017-08-08T09:04:59.840Z,25.68
2017-08-08T09:06:09.021Z,25.69
2017-08-08T09:07:17.872Z,25.72
2017-08-08T09:08:26.728Z,25.76
2017-08-08T09:09:35.578Z,25.76
2017-08-08T09:10:44.432Z,25.78
2017-08-08T09:11:53.284Z,25.75
2017-08-08T09:13:02.132Z,25.75
2017-08-08T09:14:10.976Z,25.76
2017-08-08T09:15:19.848Z,25.72
2017-08-08T09:16:28.697Z,25.73
2017-08-08T09:17:37.569Z,25.78
2017-08-08T09:18:46.422Z,25.78
2017-08-08T09:19:55.266Z,25.79
2017-08-08T09:21:04.149Z,25.76
2017-08-08T09:22:13.008Z,25.76
2017-08-08T09:23:21.858Z,25.8
2017-08-08T09:24:30.714Z,25.92
2017-08-08T09:25:39.583Z,25.88
2017-08-08T09:26:48.430Z,25.88
2017-08-08T09:27:57.288Z,25.88
2017-08-08T09:29:06.158Z,25.91
2017-08-08T09:30:15.004Z,25.9
2017-08-08T09:31:23.880Z,25.91
2017-08-08T09:32:32.727Z,25.95
2017-08-08T09:33:41.580Z,25.91
2017-08-08T09:34:50.432Z,25.88
2017-08-08T09:35:59.295Z,25.85
2017-08-08T09:37:08.141Z,25.92
2017-08-08T09:38:16.996Z,25.98
2017-08-08T09:39:26.168Z,25.94
2017-08-08T09:40:35.029Z,25.98
2017-08-08T09:41:43.876Z,25.94
2017-08-08T09:42:52.732Z,26.05
2017-08-08T09:44:01.579Z,26
2017-08-08T09:45:10.447Z,25.98
2017-08-08T09:46:19.294Z,25.97
2017-08-08T09:47:28.144Z,26.03
2017-08-08T09:48:37.013Z,26.02
2017-08-08T09:49:46.186Z,25.95
2017-08-08T09:50:55.041Z,26.06
2017-08-08T09:52:03.890Z,25.98
2017-08-08T09:53:12.752Z,26
2017-08-08T09:54:21.596Z,26.03
2017-08-08T09:55:30.489Z,26.07
2017-08-08T09:56:39.343Z,26
2017-08-08T09:57:48.198Z,26.02
2017-08-08T09:58:57.051Z,26.09
2017-08-08T10:00:05.904Z,26.13
2017-08-08T10:01:15.075Z,26.09
2017-08-08T10:02:23.922Z,26.06
2017-08-08T10:03:32.773Z,26.13
2017-08-08T10:04:41.946Z,26.03
2017-08-08T10:05:50.794Z,26.1
2017-08-08T10:06:59.648Z,26.06
2017-08-08T10:08:08.497Z,26.06
2017-08-08T10:09:17.345Z,26.03
2017-08-08T10:10:26.206Z,26.07
2017-08-08T10:11:35.056Z,26.12
2017-08-08T10:12:43.911Z,26
2017-08-08T10:13:52.761Z,26.09
2017-08-08T10:15:01.615Z,26.1
2017-08-08T10:16:10.464Z,26.22
2017-08-08T10:17:19.314Z,26.16
2017-08-08T10:18:28.177Z,26.1
2017-08-08T10:19:37.025Z,26.16
2017-08-08T10:20:45.874Z,26.1
2017-08-08T10:21:54.733Z,26.25
2017-08-08T10:23:03.578Z,26.22
2017-08-08T10:24:12.428Z,26.18
2017-08-08T10:25:21.598Z,26.17
2017-08-08T10:26:30.447Z,26.17
2017-08-08T10:27:39.298Z,26.23
2017-08-08T10:28:48.154Z,26.21
2017-08-08T10:29:57.010Z,26.18
2017-08-08T10:31:05.865Z,26.29
2017-08-08T10:32:14.713Z,26.18
2017-08-08T10:33:23.570Z,26.21
2017-08-08T10:34:32.421Z,26.31
2017-08-08T10:35:41.283Z,26.28
2017-08-08T10:36:50.135Z,26.13
2017-08-08T10:37:58.990Z,26.17
2017-08-08T10:39:07.848Z,26.29
2017-08-08T10:40:16.726Z,26.26
2017-08-08T10:41:25.893Z,26.28
2017-08-08T10:42:34.748Z,26.25
2017-08-08T10:43:43.599Z,26.23
2017-08-08T10:44:52.469Z,26.32
2017-08-08T10:46:01.316Z,26.28
2017-08-08T10:47:10.172Z,26.35
2017-08-08T10:48:19.030Z,26.28
2017-08-08T10:49:27.879Z,26.36
2017-08-08T10:50:36.738Z,26.29
2017-08-08T10:51:45.590Z,26.38
2017-08-08T10:52:54.753Z,26.29
2017-08-08T10:54:03.629Z,26.47
2017-08-08T10:55:12.798Z,26.44
2017-08-08T10:56:21.655Z,26.47
2017-08-08T10:57:30.503Z,26.41
2017-08-08T10:58:39.369Z,26.4
2017-08-08T10:59:48.223Z,26.32
2017-08-08T11:00:57.078Z,26.36
2017-08-08T11:02:05.930Z,26.43
2017-08-08T11:03:14.784Z,26.32
2017-08-08T11:04:23.637Z,26.44
2017-08-08T11:05:32.495Z,26.48
2017-08-08T11:06:41.345Z,26.4
2017-08-08T11:07:50.204Z,26.44
2017-08-08T11:08:59.051Z,26.51
2017-08-08T11:10:07.903Z,26.51
2017-08-08T11:11:16.753Z,26.5
2017-08-08T11:12:25.607Z,26.58
2017-08-08T11:13:34.462Z,26.54
2017-08-08T11:14:43.318Z,26.55
2017-08-08T11:15:52.173Z,26.53
2017-08-08T11:17:01.018Z,26.58
2017-08-08T11:18:09.873Z,26.51
2017-08-08T11:19:18.745Z,26.58
2017-08-08T11:20:27.595Z,26.54
2017-08-08T11:21:36.456Z,26.62
2017-08-08T11:22:45.302Z,26.54
2017-08-08T11:23:54.176Z,26.62
2017-08-08T11:25:03.024Z,26.53
2017-08-08T11:26:11.885Z,26.6
2017-08-08T11:27:20.735Z,26.58
2017-08-08T11:28:29.908Z,26.69
2017-08-08T11:29:38.765Z,26.62
2017-08-08T11:30:47.614Z,26.68
2017-08-08T11:31:56.469Z,26.62
2017-08-08T11:33:05.325Z,26.62
2017-08-08T11:34:14.177Z,26.63
2017-08-08T11:35:23.035Z,26.6
2017-08-08T11:36:31.885Z,26.63
2017-08-08T11:37:40.733Z,26.69
2017-08-08T11:38:49.581Z,26.69
2017-08-08T11:39:58.458Z,26.7
2017-08-08T11:41:07.315Z,26.69
2017-08-08T11:42:16.168Z,26.75
2017-08-08T11:43:25.021Z,26.73
2017-08-08T11:44:33.874Z,26.7
2017-08-08T11:45:42.732Z,26.78
2017-08-08T11:46:51.588Z,26.81
2017-08-08T11:48:00.440Z,26.78
2017-08-08T11:49:09.294Z,26.8
2017-08-08T11:50:18.145Z,26.75
2017-08-08T11:51:27.004Z,26.78
2017-08-08T11:52:36.171Z,26.81
2017-08-08T11:53:45.031Z,26.78
2017-08-08T11:54:53.884Z,26.91
2017-08-08T11:56:02.740Z,26.93
2017-08-08T11:57:11.587Z,26.91
2017-08-08T11:58:20.437Z,26.88
2017-08-08T11:59:29.291Z,26.9
2017-08-08T12:00:38.139Z,26.95
2017-08-08T12:01:46.992Z,26.93
2017-08-08T12:02:55.845Z,26.93
2017-08-08T12:04:04.701Z,26.95
2017-08-08T12:05:13.556Z,26.93
2017-08-08T12:06:22.420Z,26.93
2017-08-08T12:07:31.271Z,26.97
2017-08-08T12:08:40.131Z,26.96
2017-08-08T12:09:48.983Z,26.95
2017-08-08T12:10:57.838Z,26.9
2017-08-08T12:12:06.707Z,26.93
2017-08-08T12:13:15.556Z,26.91
2017-08-08T12:14:24.407Z,26.96
2017-08-08T12:15:33.275Z,26.84
2017-08-08T12:16:42.126Z,26.97
2017-08-08T12:17:50.976Z,27
2017-08-08T12:18:59.834Z,26.97
2017-08-08T12:20:09.001Z,27.05
2017-08-08T12:21:17.876Z,27
2017-08-08T12:22:26.730Z,26.97
2017-08-08T12:23:35.579Z,26.95
2017-08-08T12:24:44.431Z,27
2017-08-08T12:25:53.290Z,27.03
2017-08-08T12:27:02.145Z,26.99
2017-08-08T12:28:11.001Z,27.02
2017-08-08T12:29:19.858Z,27
2017-08-08T12:30:28.715Z,26.93
2017-08-08T12:31:37.567Z,27.05
2017-08-08T12:32:46.430Z,26.95
2017-08-08T12:33:55.283Z,26.97
2017-08-08T12:35:04.137Z,27
2017-08-08T12:36:13.311Z,27.07
2017-08-08T12:37:22.159Z,27.03
2017-08-08T12:38:31.011Z,27.03
2017-08-08T12:39:39.861Z,27.06
2017-08-08T12:40:48.718Z,27.05
2017-08-08T12:41:57.565Z,27.05
2017-08-08T12:43:06.422Z,27.05
2017-08-08T12:44:15.274Z,27.05
2017-08-08T12:45:24.118Z,27.07
2017-08-08T12:46:33.304Z,27.17
2017-08-08T12:47:42.166Z,27.14
2017-08-08T12:48:51.029Z,27.09
2017-08-08T12:49:59.883Z,27.12
2017-08-08T12:51:08.741Z,27.12
2017-08-08T12:52:17.590Z,27.14
2017-08-08T12:53:26.450Z,27.1
2017-08-08T12:54:35.305Z,27.12
2017-08-08T12:55:44.156Z,27.21
2017-08-08T12:56:53.016Z,27.2
2017-08-08T12:58:01.875Z,27.18
2017-08-08T12:59:10.729Z,27.24
2017-08-08T13:00:19.580Z,27.22
2017-08-08T13:01:28.755Z,27.18
2017-08-08T13:02:37.605Z,27.25
2017-08-08T13:03:46.460Z,27.24
2017-08-08T13:04:55.317Z,27.27
2017-08-08T13:06:04.164Z,27.27
2017-08-08T13:07:13.020Z,27.25
2017-08-08T13:08:21.875Z,27.25
2017-08-08T13:09:30.722Z,27.28
2017-08-08T13:10:39.579Z,27.27
2017-08-08T13:11:48.437Z,27.32
2017-08-08T13:12:57.310Z,27.27
2017-08-08T13:14:06.163Z,27.34
2017-08-08T13:15:15.051Z,27.32
2017-08-08T13:16:23.911Z,27.25
2017-08-08T13:17:32.760Z,27.27
2017-08-08T13:18:41.610Z,27.37
2017-08-08T13:19:50.485Z,27.34
2017-08-08T13:20:59.344Z,27.4
2017-08-08T13:22:08.191Z,27.36
2017-08-08T13:23:17.046Z,27.44
2017-08-08T13:24:25.899Z,27.44
2017-08-08T13:25:34.763Z,27.42
2017-08-08T13:26:43.625Z,27.46
2017-08-08T13:27:52.474Z,27.4
2017-08-08T13:29:01.335Z,27.4
2017-08-08T13:30:10.194Z,27.43
2017-08-08T13:31:19.050Z,27.37
2017-08-08T13:32:27.899Z,27.52
2017-08-08T13:33:36.754Z,27.47
2017-08-08T13:34:45.614Z,27.47
2017-08-08T13:35:54.474Z,27.46
2017-08-08T13:37:03.325Z,27.62
2017-08-08T13:38:12.186Z,27.55
2017-08-08T13:39:21.042Z,27.58
2017-08-08T13:40:29.893Z,27.6
2017-08-08T13:41:38.744Z,27.55
2017-08-08T13:42:47.597Z,27.65
2017-08-08T13:43:56.802Z,27.55
2017-08-08T13:45:05.652Z,27.68
2017-08-08T13:46:14.512Z,27.7
2017-08-08T13:47:23.683Z,27.63
2017-08-08T13:48:32.550Z,27.75
2017-08-08T13:49:41.413Z,27.62
2017-08-08T13:50:50.264Z,27.71
2017-08-08T13:51:59.126Z,27.71
2017-08-08T13:53:07.997Z,27.74
2017-08-08T13:54:16.847Z,27.71
2017-08-08T13:55:25.700Z,27.71
2017-08-08T13:56:34.561Z,27.71
2017-08-08T13:57:43.415Z,27.68
2017-08-08T13:58:52.269Z,27.75
2017-08-08T14:00:01.134Z,27.74
2017-08-08T14:01:09.988Z,27.71
2017-08-08T14:02:18.842Z,27.7
2017-08-08T14:03:27.696Z,27.82
2017-08-08T14:04:36.562Z,27.8
2017-08-08T14:05:45.725Z,27.8
2017-08-08T14:06:54.583Z,27.8
2017-08-08T14:08:03.438Z,27.75
2017-08-08T14:09:12.294Z,27.81
2017-08-08T14:10:21.144Z,27.75
2017-08-08T14:11:29.995Z,27.8
2017-08-08T14:12:38.855Z,27.84
2017-08-08T14:13:47.710Z,27.75
2017-08-08T14:14:56.560Z,27.84
2017-08-08T14:16:05.421Z,27.87
2017-08-08T14:17:14.273Z,27.87
2017-08-08T14:18:23.124Z,27.85
2017-08-08T14:19:31.975Z,27.89
2017-08-08T14:20:40.837Z,27.87
2017-08-08T14:21:49.722Z,27.89
2017-08-08T14:22:58.577Z,27.9
2017-08-08T14:24:07.759Z,27.87
2017-08-08T14:25:16.616Z,27.9
2017-08-08T14:26:25.473Z,27.93
2017-08-08T14:27:34.324Z,27.85
2017-08-08T14:28:43.178Z,27.96
2017-08-08T14:29:52.029Z,27.94
2017-08-08T14:31:00.892Z,27.97
2017-08-08T14:32:09.749Z,27.97
2017-08-08T14:33:18.604Z,27.94
2017-08-08T14:34:27.453Z,27.96
2017-08-08T14:35:36.307Z,27.89
2017-08-08T14:36:45.483Z,27.97
2017-08-08T14:37:54.337Z,28
2017-08-08T14:39:03.192Z,27.94
2017-08-08T14:40:12.077Z,28.02
2017-08-08T14:41:20.929Z,28.09
2017-08-08T14:42:29.777Z,28.05
2017-08-08T14:43:38.631Z,28.08
2017-08-08T14:44:47.491Z,28.08
2017-08-08T14:45:56.356Z,28.19
2017-08-08T14:47:05.210Z,28.26
2017-08-08T14:48:14.069Z,28.18
2017-08-08T14:49:22.924Z,28.22
2017-08-08T14:50:31.781Z,28.24
2017-08-08T14:51:40.642Z,28.22